createdAt,value
2018-12-24T03:39:26.380Z,100659.00
2018-12-24T03:41:59.033Z,100660.00
2018-12-24T03:44:29.614Z,100659.00
2018-12-24T03:44:31.808Z,100670.00
2018-12-24T03:45:32.403Z,100659.00
2018-12-24T03:47:04.798Z,100681.00
2018-12-24T03:49:38.018Z,100667.00
2018-12-24T03:52:10.768Z,100672.00
2018-12-24T03:54:43.868Z,100668.00
2018-12-24T03:57:16.440Z,100665.00
2018-12-24T05:19:02.664Z,100546.00
2018-12-24T05:21:35.512Z,100539.00
2018-12-24T05:24:08.774Z,100528.00
2018-12-24T05:30:06.898Z,100518.00
2018-12-24T05:32:40.028Z,100514.00
2018-12-24T05:35:12.919Z,100520.00
2018-12-24T05:37:46.510Z,100518.00
2018-12-24T05:40:19.390Z,100529.00
2018-12-24T05:42:52.076Z,100520.00
2018-12-24T05:45:25.100Z,100514.00
2018-12-24T05:47:57.659Z,100519.00
2018-12-24T05:50:31.047Z,100512.00
2018-12-24T05:53:03.941Z,100491.00
2018-12-24T05:55:36.737Z,100494.00
2018-12-24T05:58:10.110Z,100479.00
2018-12-24T06:00:43.002Z,100480.00
2018-12-24T06:03:15.955Z,100488.00
2018-12-24T06:05:48.756Z,100494.00
2018-12-24T06:08:23.240Z,100504.00
2018-12-24T06:10:56.422Z,100498.00
2018-12-24T06:13:29.171Z,100487.00
2018-12-24T06:16:02.024Z,100474.00
2018-12-24T06:18:35.152Z,100479.00
2018-12-24T06:21:08.221Z,100476.00
2018-12-24T06:23:40.805Z,100474.00
2018-12-24T06:26:13.581Z,100483.00
2018-12-24T06:28:47.265Z,100493.00
2018-12-24T06:31:20.300Z,100488.00
2018-12-24T06:33:53.285Z,100482.00
2018-12-24T06:36:27.048Z,100475.00
2018-12-24T06:38:59.724Z,100474.00
2018-12-24T06:41:32.809Z,100468.00
2018-12-24T06:44:06.887Z,100470.00
2018-12-24T06:46:40.089Z,100458.00
2018-12-24T06:49:13.187Z,100455.00
2018-12-24T06:51:46.014Z,100448.00
2018-12-24T06:54:19.420Z,100456.00
2018-12-24T06:56:52.110Z,100463.00
2018-12-24T06:59:25.266Z,100461.00
2018-12-24T07:01:58.165Z,100465.00
2018-12-24T07:04:31.043Z,100461.00
2018-12-24T07:07:04.040Z,100465.00
2018-12-24T07:09:37.216Z,100457.00
2018-12-24T07:12:10.375Z,100447.00
2018-12-24T07:14:44.653Z,100440.00
2018-12-24T07:17:17.578Z,100442.00
2018-12-24T07:19:50.671Z,100450.00
2018-12-24T07:22:23.382Z,100446.00
2018-12-24T07:24:56.566Z,100440.00
2018-12-24T07:27:30.894Z,100416.00
2018-12-24T07:30:05.180Z,100409.00
2018-12-24T07:32:39.810Z,100393.00
2018-12-24T07:35:12.850Z,100390.00
2018-12-24T07:37:45.807Z,100385.00
2018-12-24T07:40:19.000Z,100387.00
2018-12-24T07:42:51.893Z,100393.00
2018-12-24T07:45:25.033Z,100384.00
2018-12-24T07:47:58.391Z,100384.00
2018-12-24T07:50:31.411Z,100392.00
2018-12-24T07:53:04.031Z,100392.00
2018-12-24T07:55:37.042Z,100392.00
2018-12-24T07:58:10.118Z,100376.00
2018-12-24T08:00:42.693Z,100361.00
2018-12-24T08:03:15.694Z,100358.00
2018-12-24T08:05:48.537Z,100356.00
2018-12-24T08:08:21.818Z,100348.00
2018-12-24T08:10:54.616Z,100340.00
2018-12-24T08:13:27.514Z,100339.00
2018-12-24T08:16:00.846Z,100333.00
2018-12-24T08:18:34.487Z,100341.00
2018-12-24T08:21:07.630Z,100347.00
2018-12-24T08:23:41.014Z,100354.00
2018-12-24T08:26:13.742Z,100357.00
2018-12-24T08:28:46.668Z,100360.00
2018-12-24T08:31:21.392Z,100374.00
2018-12-24T08:33:54.337Z,100389.00
2018-12-24T08:36:27.461Z,100383.00
2018-12-24T08:39:00.457Z,100367.00
2018-12-24T08:41:33.471Z,100353.00
2018-12-24T08:44:07.216Z,100351.00
2018-12-24T08:46:40.201Z,100358.00
2018-12-24T08:49:13.100Z,100340.00
2018-12-24T08:51:46.327Z,100337.00
2018-12-24T08:54:19.837Z,100312.00
2018-12-24T08:56:52.584Z,100305.00
2018-12-24T08:59:25.477Z,100302.00
2018-12-24T09:01:58.782Z,100312.00
2018-12-24T09:04:32.941Z,100323.00
2018-12-24T09:07:06.206Z,100343.00
2018-12-24T09:09:39.477Z,100359.00
2018-12-24T09:12:12.360Z,100357.00
2018-12-24T09:14:50.168Z,100326.00
2018-12-24T09:17:19.979Z,100278.00
2018-12-24T09:19:52.652Z,100271.00
2018-12-24T09:22:26.211Z,100267.00
2018-12-24T09:24:58.952Z,100261.00
2018-12-24T09:27:32.147Z,100261.00
2018-12-24T09:30:05.103Z,100261.00
2018-12-24T09:32:38.776Z,100250.00
2018-12-24T09:35:12.743Z,100239.00
2018-12-24T09:37:45.583Z,100240.00
2018-12-24T09:40:18.476Z,100227.00
2018-12-24T09:42:51.830Z,100218.00
2018-12-24T09:45:25.049Z,100225.00
2018-12-24T09:47:58.734Z,100219.00
2018-12-24T09:50:31.923Z,100215.00
2018-12-24T09:53:04.961Z,100218.00
2018-12-24T09:55:37.757Z,100235.00
2018-12-24T09:58:11.210Z,100230.00
2018-12-24T10:00:43.783Z,100203.00
2018-12-24T10:03:19.895Z,100178.00
2018-12-24T10:05:52.322Z,100184.00
2018-12-24T10:08:25.525Z,100187.00
2018-12-24T10:10:58.668Z,100189.00
2018-12-24T10:13:31.404Z,100172.00
2018-12-24T10:16:08.000Z,100169.00
2018-12-24T10:18:41.039Z,100147.00
2018-12-24T10:21:14.466Z,100133.00
2018-12-24T10:23:48.750Z,100119.00
2018-12-24T10:26:21.866Z,100127.00
2018-12-24T10:28:55.578Z,100134.00
2018-12-24T10:31:28.404Z,100141.00
2018-12-24T10:34:01.794Z,100137.00
2018-12-24T10:36:35.273Z,100141.00
2018-12-24T10:39:09.680Z,100144.00
2018-12-24T10:41:43.222Z,100137.00
2018-12-24T10:44:16.337Z,100132.00
2018-12-24T10:46:49.473Z,100125.00
2018-12-24T10:49:22.737Z,100118.00
2018-12-24T10:51:55.262Z,100115.00
2018-12-24T10:54:28.166Z,100090.00
2018-12-24T10:57:00.871Z,100087.00
2018-12-24T10:59:35.063Z,100081.00
2018-12-24T11:02:09.055Z,100057.00
2018-12-24T11:04:41.771Z,100050.00
2018-12-24T11:07:14.564Z,100053.00
2018-12-24T11:09:47.602Z,100029.00
2018-12-24T11:12:20.162Z,100066.00
2018-12-24T11:14:52.785Z,100045.00
2018-12-24T11:17:25.589Z,100020.00
2018-12-24T11:19:59.266Z,100013.00
2018-12-24T11:22:32.329Z,100018.00
2018-12-24T11:25:04.968Z,99959.00
2018-12-24T11:27:38.520Z,100001.00
2018-12-24T11:30:11.964Z,99959.00
2018-12-24T11:32:44.731Z,100007.00
2018-12-24T11:35:18.331Z,99952.00
2018-12-24T11:37:51.415Z,99919.00
2018-12-24T11:40:24.326Z,99909.00
2018-12-24T11:42:58.441Z,99969.00
2018-12-24T11:45:34.118Z,99964.00
2018-12-24T11:48:06.600Z,99972.00
2018-12-24T11:50:39.136Z,100005.00
2018-12-24T11:53:11.888Z,100001.00
2018-12-24T11:55:45.140Z,99965.00
2018-12-24T11:58:17.826Z,99977.00
2018-12-24T12:00:50.659Z,99949.00
2018-12-24T12:03:23.685Z,99972.00
2018-12-24T12:05:56.587Z,99950.00
2018-12-24T12:08:28.998Z,99955.00
2018-12-24T12:11:02.191Z,99933.00
2018-12-24T12:13:34.952Z,99925.00
2018-12-24T12:16:07.901Z,99950.00
2018-12-24T12:18:40.767Z,99957.00
2018-12-24T12:21:13.517Z,99933.00
2018-12-24T12:23:46.192Z,99934.00
2018-12-24T12:26:18.869Z,99921.00
2018-12-24T12:28:51.736Z,99916.00
2018-12-24T12:31:24.333Z,99904.00
2018-12-24T12:33:58.314Z,99921.00
2018-12-24T12:36:31.245Z,99912.00
2018-12-24T12:39:04.908Z,99901.00
2018-12-24T12:41:37.841Z,99909.00
2018-12-24T12:44:10.710Z,99910.00
2018-12-24T12:46:43.550Z,99912.00
2018-12-24T12:49:16.428Z,99925.00
2018-12-24T12:51:49.623Z,99922.00
2018-12-24T12:54:22.245Z,99929.00
2018-12-24T12:56:54.950Z,99928.00
2018-12-24T12:59:27.729Z,99926.00
2018-12-24T13:02:00.483Z,99933.00
2018-12-24T13:04:33.258Z,99941.00
2018-12-24T13:07:05.960Z,99937.00
2018-12-24T13:09:39.311Z,99961.00
2018-12-24T13:12:12.166Z,99936.00
2018-12-24T13:14:45.232Z,99925.00
2018-12-24T13:17:18.113Z,99941.00
2018-12-24T13:19:51.376Z,99936.00
2018-12-24T13:22:23.976Z,99943.00
2018-12-24T13:24:56.894Z,99943.00
2018-12-24T13:27:29.799Z,99947.00
2018-12-24T13:30:02.642Z,99943.00
2018-12-24T13:32:35.730Z,99943.00
2018-12-24T13:35:08.418Z,99940.00
2018-12-24T13:37:42.784Z,99940.00
2018-12-24T13:40:15.285Z,99955.00
2018-12-24T13:42:48.417Z,99940.00
2018-12-24T13:45:21.354Z,99939.00
2018-12-24T13:47:54.345Z,99940.00
2018-12-24T13:50:26.994Z,99947.00
2018-12-24T13:52:59.804Z,99945.00
2018-12-24T13:55:32.705Z,99942.00
2018-12-24T13:58:05.588Z,99942.00
2018-12-24T14:00:38.252Z,99953.00
2018-12-24T14:03:11.056Z,99960.00
2018-12-24T14:05:43.824Z,99957.00
2018-12-24T14:08:16.548Z,99962.00
2018-12-24T14:10:50.065Z,99954.00
2018-12-24T14:13:22.689Z,99953.00
2018-12-24T14:15:55.600Z,99944.00
2018-12-24T14:18:29.049Z,99953.00
2018-12-24T14:21:01.720Z,99958.00
2018-12-24T14:23:34.445Z,99948.00
2018-12-24T14:26:07.214Z,99945.00
2018-12-24T14:28:39.979Z,99951.00
2018-12-24T14:31:12.630Z,99961.00
2018-12-24T14:33:45.655Z,99961.00
2018-12-24T14:36:19.231Z,99953.00
2018-12-24T14:38:52.674Z,99958.00
2018-12-24T14:41:25.592Z,99962.00
2018-12-24T14:43:58.168Z,99966.00
2018-12-24T14:46:30.892Z,99967.00
2018-12-24T14:49:03.563Z,99963.00
2018-12-24T14:51:36.341Z,99968.00
2018-12-24T14:54:09.501Z,99974.00
2018-12-24T14:56:42.437Z,99985.00
2018-12-24T14:59:15.320Z,99986.00
2018-12-24T15:01:49.348Z,99990.00
2018-12-24T15:04:22.331Z,99991.00
2018-12-24T15:06:55.515Z,100000.00
2018-12-24T15:09:28.482Z,99996.00
2018-12-24T15:12:02.008Z,100002.00
2018-12-24T15:14:34.912Z,99996.00
2018-12-24T15:17:07.987Z,99993.00
2018-12-24T15:19:40.899Z,99998.00
2018-12-24T15:22:14.766Z,100000.00
2018-12-24T15:24:47.653Z,99999.00
2018-12-24T15:27:20.504Z,100008.00
2018-12-24T15:29:53.531Z,100002.00
2018-12-24T15:32:26.283Z,100009.00
2018-12-24T15:34:59.484Z,100006.00
2018-12-24T15:37:33.296Z,100000.00
2018-12-24T15:40:06.408Z,100004.00
2018-12-24T15:42:39.708Z,100003.00
2018-12-24T15:45:12.124Z,99997.00
2018-12-24T15:47:44.812Z,100001.00
2018-12-24T15:50:17.853Z,100011.00
2018-12-24T15:52:50.386Z,100003.00
2018-12-24T15:55:22.750Z,100003.00
2018-12-24T15:57:55.868Z,100010.00
2018-12-24T16:00:28.740Z,100007.00
2018-12-24T16:03:01.163Z,100009.00
2018-12-24T16:05:34.707Z,100014.00
2018-12-24T16:08:07.283Z,100008.00
2018-12-24T16:10:39.846Z,100006.00
2018-12-24T16:13:13.560Z,100018.00
2018-12-24T16:15:46.251Z,100017.00
2018-12-24T16:18:20.287Z,100018.00
2018-12-24T16:20:52.919Z,100023.00
2018-12-24T16:23:25.646Z,100026.00
2018-12-24T16:25:59.737Z,100020.00
2018-12-24T16:28:32.264Z,100021.00
2018-12-24T16:31:05.686Z,100021.00
2018-12-24T16:33:38.723Z,100013.00
2018-12-24T16:36:11.791Z,100016.00
2018-12-24T16:38:45.331Z,100023.00
2018-12-24T16:41:19.630Z,100033.00
2018-12-24T16:43:52.486Z,100038.00
2018-12-24T16:46:25.396Z,100039.00
2018-12-24T16:48:58.275Z,100039.00
2018-12-24T16:51:34.287Z,100038.00
2018-12-24T16:54:06.983Z,100049.00
2018-12-24T16:56:39.959Z,100046.00
2018-12-24T16:59:12.752Z,100046.00
2018-12-24T17:01:45.708Z,100045.00
2018-12-24T17:04:18.301Z,100046.00
2018-12-24T17:06:52.273Z,100052.00
2018-12-24T17:09:25.265Z,100047.00
2018-12-24T17:11:58.288Z,100049.00
2018-12-24T17:14:31.018Z,100059.00
2018-12-24T17:17:07.856Z,100051.00
2018-12-24T17:19:38.542Z,100044.00
2018-12-24T17:22:11.321Z,100050.00
2018-12-24T17:24:44.313Z,100048.00
2018-12-24T17:27:17.497Z,100055.00
2018-12-24T17:29:50.108Z,100061.00
2018-12-24T17:32:23.139Z,100052.00
2018-12-24T17:34:55.775Z,100053.00
2018-12-24T17:37:28.644Z,100054.00
2018-12-24T17:40:01.344Z,100056.00
2018-12-24T17:42:35.077Z,100053.00
2018-12-24T17:45:07.809Z,100053.00
2018-12-24T17:47:40.929Z,100058.00
2018-12-24T17:50:14.028Z,100052.00
2018-12-24T17:52:46.684Z,100040.00
2018-12-24T17:55:19.696Z,100036.00
2018-12-24T17:57:52.473Z,100039.00
2018-12-24T18:00:25.253Z,100045.00
2018-12-24T18:02:57.905Z,100044.00
2018-12-24T18:05:30.613Z,100053.00
2018-12-24T18:08:03.715Z,100057.00
2018-12-24T18:10:36.389Z,100028.00
2018-12-24T18:13:08.810Z,100035.00
2018-12-24T18:15:41.775Z,100042.00
2018-12-24T18:18:14.723Z,100054.00
2018-12-24T18:20:47.388Z,100059.00
2018-12-24T18:23:19.958Z,100046.00
2018-12-24T18:25:53.482Z,100056.00
2018-12-24T18:28:26.047Z,100066.00
2018-12-24T18:30:58.739Z,100063.00
2018-12-24T18:33:31.318Z,100027.00
2018-12-24T18:36:04.190Z,100062.00
2018-12-24T18:38:37.315Z,100074.00
2018-12-24T18:41:10.766Z,100057.00
2018-12-24T18:43:44.579Z,100046.00
2018-12-24T18:46:17.509Z,100057.00
2018-12-24T18:48:50.257Z,100051.00
2018-12-24T18:51:23.352Z,100070.00
2018-12-24T18:53:56.003Z,100038.00
2018-12-24T18:56:28.984Z,100005.00
2018-12-24T18:59:01.590Z,100041.00
2018-12-24T19:01:34.877Z,99995.00
2018-12-24T19:04:07.737Z,100027.00
2018-12-24T19:06:40.742Z,100066.00
2018-12-24T19:09:13.597Z,100074.00
2018-12-24T19:11:47.451Z,100076.00
2018-12-24T19:14:20.145Z,100067.00
2018-12-24T19:16:53.330Z,100068.00
2018-12-24T19:19:25.978Z,100032.00
2018-12-24T19:21:58.672Z,100078.00
2018-12-24T19:24:31.554Z,100084.00
2018-12-24T19:27:04.795Z,99977.00
2018-12-24T19:29:38.180Z,99965.00
2018-12-24T19:32:12.216Z,99965.00
2018-12-24T19:34:45.032Z,99961.00
2018-12-24T19:37:17.715Z,99962.00
2018-12-24T19:39:50.679Z,99967.00
2018-12-24T19:42:24.546Z,99960.00
2018-12-24T19:44:57.987Z,99970.00
2018-12-24T19:47:30.568Z,99961.00
2018-12-24T19:50:03.491Z,99973.00
2018-12-24T19:52:36.159Z,99959.00
2018-12-24T19:55:10.115Z,99950.00
2018-12-24T19:57:43.064Z,99961.00
2018-12-24T20:00:16.037Z,99945.00
2018-12-24T20:02:48.580Z,99940.00
2018-12-24T20:05:21.281Z,99947.00
2018-12-24T20:07:54.181Z,100098.00
2018-12-24T20:10:27.371Z,100098.00
2018-12-24T20:13:00.248Z,100080.00
2018-12-24T20:15:33.145Z,100092.00
2018-12-24T20:18:05.721Z,100060.00
2018-12-24T20:20:39.288Z,100061.00
2018-12-24T20:23:11.924Z,100076.00
2018-12-24T20:25:44.833Z,100082.00
2018-12-24T20:28:17.437Z,99886.00
2018-12-24T20:30:50.627Z,99898.00
2018-12-24T20:33:24.100Z,99894.00
2018-12-24T20:35:57.690Z,99919.00
2018-12-24T20:38:37.009Z,99942.00
2018-12-24T20:41:08.060Z,99897.00
2018-12-24T20:43:41.037Z,99910.00
2018-12-24T20:46:14.979Z,99899.00
2018-12-24T20:48:48.018Z,99887.00
2018-12-24T20:51:21.141Z,99999.00
2018-12-24T20:53:53.766Z,100044.00
2018-12-24T20:56:29.807Z,100044.00
2018-12-24T20:59:02.389Z,100045.00
2018-12-24T21:01:36.643Z,100023.00
2018-12-24T21:04:09.262Z,100018.00
2018-12-24T21:06:41.755Z,99836.00
2018-12-24T21:09:14.425Z,99852.00
2018-12-24T21:11:47.109Z,100024.00
2018-12-24T21:14:21.254Z,99934.00
2018-12-24T21:16:54.005Z,99982.00
2018-12-24T21:19:26.915Z,100004.00
2018-12-24T21:21:59.764Z,99992.00
2018-12-24T21:24:33.374Z,99892.00
2018-12-24T21:27:06.325Z,100023.00
2018-12-24T21:29:40.657Z,100006.00
2018-12-24T21:32:13.030Z,100018.00
2018-12-24T21:34:47.154Z,100015.00
2018-12-24T21:37:19.801Z,100007.00
2018-12-24T21:39:52.649Z,100015.00
2018-12-24T21:42:25.739Z,99997.00
2018-12-24T21:45:01.795Z,99983.00
2018-12-24T21:47:34.879Z,99968.00
2018-12-24T21:50:08.174Z,99993.00
2018-12-24T21:52:41.412Z,99973.00
2018-12-24T21:55:14.033Z,99967.00
2018-12-24T21:57:46.633Z,99990.00
2018-12-24T22:00:19.820Z,99859.00
2018-12-24T22:02:52.371Z,99924.00
2018-12-24T22:05:25.189Z,99799.00
2018-12-24T22:07:57.737Z,99904.00
2018-12-24T22:10:30.513Z,99793.00
2018-12-24T22:13:03.301Z,99951.00
2018-12-24T22:15:37.149Z,99807.00
2018-12-24T22:18:10.402Z,99812.00
2018-12-24T22:20:45.181Z,99805.00
2018-12-24T22:23:18.823Z,99983.00
2018-12-24T22:25:52.806Z,99866.00
2018-12-24T22:28:26.899Z,99952.00
2018-12-24T22:31:00.402Z,99967.00
2018-12-24T22:33:52.298Z,99982.00
2018-12-24T22:36:25.803Z,99955.00
2018-12-24T22:38:58.671Z,99935.00
2018-12-24T22:41:31.343Z,99966.00
2018-12-24T22:44:04.879Z,99844.00
2018-12-24T22:46:37.956Z,99896.00
2018-12-24T22:49:11.490Z,99930.00
2018-12-24T22:51:44.427Z,99892.00
2018-12-24T22:54:17.771Z,99955.00
2018-12-24T22:56:50.496Z,99973.00
2018-12-24T22:59:23.677Z,99982.00
2018-12-24T23:01:56.832Z,99987.00
2018-12-24T23:04:29.684Z,100002.00
2018-12-24T23:07:02.336Z,99983.00
2018-12-24T23:09:35.800Z,99974.00
2018-12-24T23:12:08.397Z,99958.00
2018-12-24T23:14:41.289Z,99948.00
2018-12-24T23:17:14.262Z,99917.00
2018-12-24T23:19:47.499Z,99913.00
2018-12-24T23:22:23.340Z,99852.00
2018-12-24T23:24:54.955Z,99889.00
2018-12-24T23:27:27.875Z,99811.00
2018-12-24T23:30:01.072Z,99910.00
2018-12-24T23:32:33.739Z,99841.00
2018-12-24T23:35:07.776Z,99911.00
2018-12-24T23:37:40.648Z,99897.00
2018-12-24T23:40:13.523Z,99904.00
2018-12-24T23:42:46.656Z,99869.00
2018-12-24T23:45:19.875Z,99851.00
2018-12-24T23:47:53.465Z,99857.00
2018-12-24T23:50:26.504Z,99854.00
2018-12-24T23:52:59.701Z,99854.00
2018-12-24T23:55:32.731Z,99860.00
2018-12-24T23:58:05.727Z,99824.00
